createdAt,value
2022-08-28T00:00:14.129Z,19.88
2022-08-28T00:02:41.922Z,19.84
2022-08-28T00:05:11.635Z,19.82
2022-08-28T00:07:38.911Z,19.81
2022-08-28T00:10:09.333Z,19.78
2022-08-28T00:12:38.559Z,19.75
2022-08-28T00:15:10.528Z,19.74
2022-08-28T00:17:40.327Z,19.70
2022-08-28T00:20:10.309Z,19.70
2022-08-28T00:22:38.873Z,19.64
2022-08-28T00:25:09.319Z,19.62
2022-08-28T00:27:55.614Z,19.58
2022-08-28T00:30:43.602Z,19.55
2022-08-28T00:33:22.471Z,19.51
2022-08-28T00:35:51.124Z,19.50
2022-08-28T00:38:20.071Z,19.45
2022-08-28T00:40:51.894Z,19.41
2022-08-28T00:43:38.551Z,19.38
2022-08-28T00:46:20.075Z,19.35
2022-08-28T00:48:47.616Z,19.33
2022-08-28T00:51:36.830Z,19.29
2022-08-28T00:54:07.924Z,19.29
2022-08-28T00:56:38.215Z,19.24
2022-08-28T00:59:11.964Z,19.20
2022-08-28T01:01:39.440Z,19.19
2022-08-28T01:04:07.412Z,19.17
2022-08-28T01:06:36.146Z,19.17
2022-08-28T01:09:04.960Z,19.12
2022-08-28T01:11:32.634Z,19.10
2022-08-28T01:14:03.176Z,19.07
2022-08-28T01:16:33.913Z,19.07
2022-08-28T01:19:07.924Z,19.06
2022-08-28T01:21:50.726Z,19.03
2022-08-28T01:24:19.355Z,19.02
2022-08-28T01:26:47.256Z,18.99
2022-08-28T01:29:15.011Z,18.97
2022-08-28T01:31:43.025Z,18.96
2022-08-28T01:34:13.118Z,18.92
2022-08-28T01:36:42.237Z,18.92
2022-08-28T01:39:18.433Z,18.88
2022-08-28T01:41:51.863Z,18.83
2022-08-28T01:44:26.000Z,18.82
2022-08-28T01:46:56.961Z,18.80
2022-08-28T01:49:25.283Z,18.78
2022-08-28T01:51:52.446Z,18.76
2022-08-28T01:54:22.155Z,18.71
2022-08-28T01:56:49.641Z,18.68
2022-08-28T01:59:17.000Z,18.64
2022-08-28T02:01:44.814Z,18.59
2022-08-28T02:04:13.255Z,18.54
2022-08-28T02:06:43.535Z,18.50
2022-08-28T02:09:14.468Z,18.42
2022-08-28T02:11:46.793Z,18.37
2022-08-28T02:14:14.606Z,18.33
2022-08-28T02:16:41.970Z,18.28
2022-08-28T02:19:09.478Z,18.25
2022-08-28T02:21:36.568Z,18.22
2022-08-28T02:24:04.964Z,18.20
2022-08-28T02:26:33.339Z,18.17
2022-08-28T02:29:00.706Z,18.14
2022-08-28T02:31:27.998Z,18.03
2022-08-28T02:33:55.946Z,18.00
2022-08-28T02:36:24.011Z,17.98
2022-08-28T02:38:57.449Z,17.98
2022-08-28T02:41:25.306Z,17.98
2022-08-28T02:43:52.506Z,17.93
2022-08-28T02:46:19.595Z,17.88
2022-08-28T02:48:47.032Z,17.82
2022-08-28T02:51:14.966Z,17.77
2022-08-28T02:53:43.014Z,17.75
2022-08-28T02:56:10.500Z,17.72
2022-08-28T02:58:39.300Z,17.71
2022-08-28T03:01:10.927Z,17.73
2022-08-28T03:03:40.798Z,17.69
2022-08-28T03:06:09.182Z,17.72
2022-08-28T03:08:36.249Z,17.66
2022-08-28T03:11:03.295Z,17.65
2022-08-28T03:13:30.972Z,17.61
2022-08-28T03:15:58.350Z,17.58
2022-08-28T03:18:30.259Z,17.55
2022-08-28T03:20:57.604Z,17.50
2022-08-28T03:23:27.781Z,17.48
2022-08-28T03:26:14.856Z,17.43
2022-08-28T03:28:49.635Z,17.37
2022-08-28T03:31:20.961Z,17.34
2022-08-28T03:33:48.570Z,17.37
2022-08-28T03:36:24.032Z,17.30
2022-08-28T03:38:53.347Z,17.25
2022-08-28T03:41:23.597Z,17.27
2022-08-28T03:43:51.444Z,17.22
2022-08-28T03:46:23.692Z,17.25
2022-08-28T03:48:52.461Z,17.22
2022-08-28T03:51:29.356Z,17.17
2022-08-28T03:53:58.895Z,17.16
2022-08-28T03:56:29.028Z,17.15
2022-08-28T03:59:01.489Z,17.12
2022-08-28T04:01:28.891Z,17.09
2022-08-28T04:03:56.460Z,17.04
2022-08-28T04:06:23.654Z,17.02
2022-08-28T04:08:51.145Z,16.97
2022-08-28T04:11:18.624Z,16.99
2022-08-28T04:13:45.749Z,16.99
2022-08-28T04:16:19.497Z,16.99
2022-08-28T04:18:49.202Z,16.92
2022-08-28T04:21:27.166Z,17.00
2022-08-28T04:23:55.170Z,16.95
2022-08-28T04:26:25.882Z,16.94
2022-08-28T04:28:55.295Z,16.92
2022-08-28T04:31:31.607Z,16.84
2022-08-28T04:34:05.978Z,16.78
2022-08-28T04:36:36.114Z,16.75
2022-08-28T04:39:06.097Z,16.71
2022-08-28T04:41:33.115Z,16.69
2022-08-28T04:44:00.112Z,16.68
2022-08-28T04:46:30.971Z,16.68
2022-08-28T04:48:58.648Z,16.65
2022-08-28T04:51:26.432Z,16.63
2022-08-28T04:53:53.471Z,16.61
2022-08-28T04:56:20.547Z,16.54
2022-08-28T04:58:47.705Z,16.56
2022-08-28T05:01:20.024Z,16.55
2022-08-28T05:03:51.946Z,16.54
2022-08-28T05:06:18.945Z,16.52
2022-08-28T05:08:45.958Z,16.52
2022-08-28T05:11:33.475Z,16.52
2022-08-28T05:14:05.507Z,16.55
2022-08-28T05:16:39.468Z,16.54
2022-08-28T05:19:06.508Z,16.52
2022-08-28T05:21:33.571Z,16.50
2022-08-28T05:24:00.966Z,16.48
2022-08-28T05:26:29.844Z,16.54
2022-08-28T05:28:59.372Z,16.57
2022-08-28T05:31:29.081Z,16.57
2022-08-28T05:34:04.669Z,16.59
2022-08-28T05:36:36.787Z,16.61
2022-08-28T05:39:08.106Z,16.65
2022-08-28T05:41:35.979Z,16.65
2022-08-28T05:44:07.965Z,16.65
2022-08-28T05:46:37.591Z,16.66
2022-08-28T05:49:09.144Z,16.66
2022-08-28T05:51:40.204Z,16.63
2022-08-28T05:54:07.309Z,16.68
2022-08-28T05:56:38.660Z,16.69
2022-08-28T05:59:07.026Z,16.74
2022-08-28T06:01:39.808Z,16.76
2022-08-28T06:04:12.373Z,16.76
2022-08-28T06:06:41.174Z,16.76
2022-08-28T06:09:20.058Z,16.81
2022-08-28T06:11:48.037Z,16.87
2022-08-28T06:14:20.684Z,16.96
2022-08-28T06:16:52.989Z,17.03
2022-08-28T06:19:23.072Z,17.10
2022-08-28T06:21:54.287Z,17.15
2022-08-28T06:24:21.284Z,17.25
2022-08-28T06:26:48.329Z,17.34
2022-08-28T06:29:18.423Z,17.40
2022-08-28T06:31:54.833Z,17.51
2022-08-28T06:34:22.347Z,17.53
2022-08-28T06:36:53.635Z,17.67
2022-08-28T06:39:22.088Z,17.76
2022-08-28T06:41:49.367Z,17.93
2022-08-28T06:44:20.537Z,18.04
2022-08-28T06:46:51.563Z,17.95
2022-08-28T06:49:19.063Z,18.10
2022-08-28T06:51:46.142Z,18.18
2022-08-28T06:54:18.328Z,18.31
2022-08-28T06:56:48.893Z,18.53
2022-08-28T06:59:15.926Z,18.60
2022-08-28T07:01:43.102Z,18.68
2022-08-28T07:04:13.728Z,18.79
2022-08-28T07:06:46.855Z,18.83
2022-08-28T07:09:14.293Z,19.05
2022-08-28T07:11:43.704Z,19.15
2022-08-28T07:14:10.880Z,19.20
2022-08-28T07:16:39.379Z,19.30
2022-08-28T07:19:10.520Z,19.50
2022-08-28T07:21:41.940Z,19.61
2022-08-28T07:24:12.139Z,19.65
2022-08-28T07:26:41.163Z,19.83
2022-08-28T07:29:10.867Z,19.92
2022-08-28T07:31:44.031Z,20.03
2022-08-28T07:34:14.997Z,20.02
2022-08-28T07:36:43.153Z,20.20
2022-08-28T07:39:13.509Z,20.17
2022-08-28T07:41:42.909Z,20.36
2022-08-28T07:44:31.668Z,20.36
2022-08-28T07:47:04.189Z,20.55
2022-08-28T07:49:33.851Z,20.62
2022-08-28T07:52:02.273Z,20.81
2022-08-28T07:54:29.316Z,20.86
2022-08-28T07:56:56.288Z,20.91
2022-08-28T07:59:23.727Z,21.03
2022-08-28T08:01:52.246Z,21.11
2022-08-28T08:04:21.656Z,21.12
2022-08-28T08:06:51.457Z,21.17
2022-08-28T08:09:22.308Z,21.25
2022-08-28T08:11:49.763Z,21.36
2022-08-28T08:14:17.836Z,21.56
2022-08-28T08:16:46.197Z,21.66
2022-08-28T08:19:14.645Z,21.77
2022-08-28T08:21:45.707Z,21.88
2022-08-28T08:24:17.982Z,21.92
2022-08-28T08:27:00.366Z,21.80
2022-08-28T08:29:35.907Z,21.94
2022-08-28T08:32:07.935Z,22.08
2022-08-28T08:34:41.653Z,22.17
2022-08-28T08:37:10.489Z,22.17
2022-08-28T08:39:38.104Z,22.26
2022-08-28T08:42:18.660Z,22.21
2022-08-28T08:44:48.367Z,22.24
2022-08-28T08:47:49.271Z,22.21
2022-08-28T08:50:35.536Z,22.28
2022-08-28T08:53:46.829Z,22.37
2022-08-28T08:56:17.085Z,22.54
2022-08-28T08:58:52.485Z,22.49
2022-08-28T09:02:05.264Z,22.61
2022-08-28T09:04:40.877Z,22.74
2022-08-28T09:07:18.787Z,22.82
2022-08-28T09:09:53.714Z,22.93
2022-08-28T09:12:26.162Z,22.90
2022-08-28T09:15:08.792Z,23.05
2022-08-28T09:17:44.911Z,23.00
2022-08-28T09:20:18.444Z,22.98
2022-08-28T09:22:50.127Z,22.97
2022-08-28T09:25:44.972Z,23.16
2022-08-28T09:28:19.908Z,23.06
2022-08-28T09:30:57.582Z,23.10
2022-08-28T09:33:38.015Z,23.06
2022-08-28T09:36:34.337Z,23.13
2022-08-28T09:39:10.842Z,23.17
2022-08-28T09:42:37.222Z,23.38
2022-08-28T09:45:30.258Z,23.39
2022-08-28T09:47:58.962Z,23.47
2022-08-28T09:50:38.931Z,23.59
2022-08-28T09:53:11.740Z,23.55
2022-08-28T09:55:55.481Z,23.66
2022-08-28T09:58:28.061Z,23.71
2022-08-28T10:01:25.371Z,23.81
2022-08-28T10:04:35.294Z,23.80
2022-08-28T10:07:15.384Z,23.89
2022-08-28T10:09:51.085Z,23.81
2022-08-28T10:12:41.923Z,23.75
2022-08-28T10:15:49.584Z,23.75
2022-08-28T10:18:30.394Z,23.72
2022-08-28T10:21:32.096Z,24.05
2022-08-28T10:24:31.287Z,24.04
2022-08-28T10:27:38.338Z,24.11
2022-08-28T10:30:40.962Z,24.28
2022-08-28T10:33:45.644Z,24.43
2022-08-28T10:36:34.780Z,24.47
2022-08-28T10:39:59.124Z,24.58
2022-08-28T10:42:50.892Z,24.80
2022-08-28T10:45:23.806Z,24.83
2022-08-28T10:48:08.720Z,24.58
2022-08-28T10:50:50.647Z,24.34
2022-08-28T10:53:30.338Z,24.41
2022-08-28T10:56:10.614Z,24.60
2022-08-28T10:58:40.922Z,24.67
2022-08-28T11:01:23.709Z,24.71
2022-08-28T11:03:52.140Z,24.58
2022-08-28T11:06:39.029Z,24.60
2022-08-28T11:09:35.996Z,24.54
2022-08-28T11:12:36.997Z,24.90
2022-08-28T11:15:48.055Z,25.19
2022-08-28T11:18:15.800Z,25.02
2022-08-28T11:21:15.246Z,24.80
2022-08-28T11:24:00.147Z,24.69
2022-08-28T11:26:41.542Z,24.77
2022-08-28T11:29:08.904Z,24.87
2022-08-28T11:31:40.243Z,25.00
2022-08-28T11:34:07.818Z,25.19
2022-08-28T11:36:34.727Z,25.45
2022-08-28T11:39:13.632Z,25.34
2022-08-28T11:45:01.471Z,25.51
2022-08-28T11:47:56.640Z,25.46
2022-08-28T11:50:29.946Z,25.48
2022-08-28T11:53:36.551Z,25.47
2022-08-28T11:56:44.519Z,25.25
2022-08-28T11:59:35.343Z,25.23
2022-08-28T12:02:39.431Z,25.43
2022-08-28T12:05:15.697Z,25.54
2022-08-28T12:07:47.004Z,25.75
2022-08-28T12:10:22.736Z,25.92
2022-08-28T12:12:55.622Z,26.04
2022-08-28T12:15:28.682Z,25.95
2022-08-28T12:18:14.325Z,26.01
2022-08-28T12:21:04.246Z,26.21
2022-08-28T12:23:45.050Z,26.26
2022-08-28T12:26:41.772Z,25.87
2022-08-28T12:29:34.604Z,25.73
2022-08-28T12:32:26.537Z,26.17
2022-08-28T12:34:59.435Z,26.01
2022-08-28T12:37:42.926Z,25.90
2022-08-28T12:40:41.594Z,25.78
2022-08-28T12:43:15.597Z,25.87
2022-08-28T12:45:49.825Z,25.72
2022-08-28T12:48:20.925Z,25.88
2022-08-28T12:50:56.619Z,26.18
2022-08-28T12:53:26.136Z,26.39
2022-08-28T12:55:54.191Z,26.37
2022-08-28T12:58:39.928Z,26.36
2022-08-28T13:01:32.586Z,26.02
2022-08-28T13:04:19.875Z,26.07
2022-08-28T13:06:46.866Z,26.19
2022-08-28T13:09:18.734Z,26.00
2022-08-28T13:11:50.335Z,26.06
2022-08-28T13:14:44.173Z,26.30
2022-08-28T13:17:14.005Z,26.45
2022-08-28T13:19:41.482Z,26.41
2022-08-28T13:22:39.692Z,26.45
2022-08-28T13:25:08.183Z,26.63
2022-08-28T13:27:36.075Z,26.55
2022-08-28T13:30:20.981Z,26.38
2022-08-28T13:33:01.941Z,26.17
2022-08-28T13:35:38.917Z,26.19
2022-08-28T13:38:16.551Z,26.52
2022-08-28T13:41:03.630Z,26.55
2022-08-28T13:43:45.930Z,26.66
2022-08-28T13:46:13.911Z,26.61
2022-08-28T13:48:41.004Z,26.39
2022-08-28T13:51:14.295Z,26.48
2022-08-28T13:53:48.238Z,26.47
2022-08-28T13:56:17.358Z,26.53
2022-08-28T13:58:44.734Z,26.58
2022-08-28T14:01:44.579Z,26.92
2022-08-28T14:04:13.115Z,26.57
2022-08-28T14:06:44.051Z,26.30
2022-08-28T14:09:17.606Z,26.14
2022-08-28T14:11:49.730Z,26.14
2022-08-28T14:14:18.048Z,26.33
2022-08-28T14:16:45.797Z,26.67
2022-08-28T14:19:13.464Z,26.78
2022-08-28T14:21:41.438Z,26.86
2022-08-28T14:24:08.717Z,26.79
2022-08-28T14:26:36.229Z,26.77
2022-08-28T14:29:07.483Z,26.86
2022-08-28T14:31:36.892Z,26.91
2022-08-28T14:34:05.534Z,26.69
2022-08-28T14:36:33.271Z,26.50
2022-08-28T14:39:06.188Z,26.41
2022-08-28T14:41:34.725Z,26.49
2022-08-28T14:44:02.239Z,26.53
2022-08-28T14:46:35.936Z,26.59
2022-08-28T14:49:08.479Z,26.61
2022-08-28T14:51:38.431Z,26.58
2022-08-28T14:54:06.599Z,26.62
2022-08-28T14:56:34.367Z,26.75
2022-08-28T14:59:04.061Z,26.74
2022-08-28T15:01:40.358Z,26.44
2022-08-28T15:04:12.386Z,26.44
2022-08-28T15:06:42.513Z,26.63
2022-08-28T15:09:12.332Z,26.42
2022-08-28T15:11:40.134Z,26.36
2022-08-28T15:14:07.241Z,26.17
2022-08-28T15:16:39.238Z,26.02
2022-08-28T15:19:18.515Z,26.08
2022-08-28T15:21:51.454Z,26.02
2022-08-28T15:24:26.344Z,26.00
2022-08-28T15:26:53.909Z,26.13
2022-08-28T15:29:21.247Z,26.39
2022-08-28T15:31:50.318Z,26.40
2022-08-28T15:34:28.427Z,26.47
2022-08-28T15:36:57.352Z,26.40
2022-08-28T15:39:47.246Z,26.39
2022-08-28T15:42:15.339Z,26.38
2022-08-28T15:44:43.416Z,26.33
2022-08-28T15:47:12.622Z,26.17
2022-08-28T15:49:44.739Z,26.02
2022-08-28T15:52:18.262Z,26.12
2022-08-28T15:54:45.601Z,26.07
2022-08-28T15:57:14.661Z,26.09
2022-08-28T15:59:49.897Z,26.06
2022-08-28T16:02:23.364Z,26.06
2022-08-28T16:04:51.569Z,25.98
2022-08-28T16:07:21.576Z,26.02
2022-08-28T16:09:49.499Z,25.98
2022-08-28T16:12:17.278Z,26.01
2022-08-28T16:14:44.531Z,26.14
2022-08-28T16:17:11.744Z,26.18
2022-08-28T16:19:40.812Z,26.16
2022-08-28T16:22:10.567Z,26.25
2022-08-28T16:24:38.225Z,26.18
2022-08-28T16:29:52.947Z,25.76
2022-08-28T16:32:20.407Z,25.82
2022-08-28T16:34:47.886Z,25.83
2022-08-28T16:35:49.535Z,26.04
2022-08-28T16:37:18.602Z,25.87
2022-08-28T16:39:48.041Z,25.90
2022-08-28T16:42:15.557Z,25.79
2022-08-28T16:44:42.575Z,25.68
2022-08-28T16:47:09.869Z,25.65
2022-08-28T16:49:37.010Z,25.57
2022-08-28T16:52:04.136Z,25.63
2022-08-28T16:54:31.290Z,25.71
2022-08-28T16:56:58.482Z,25.68
2022-08-28T16:59:25.611Z,25.65
2022-08-28T17:01:53.094Z,25.44
2022-08-28T17:04:21.757Z,25.38
2022-08-28T17:06:49.258Z,25.34
2022-08-28T17:09:16.317Z,25.25
2022-08-28T17:11:43.369Z,25.25
2022-08-28T17:14:11.994Z,25.14
2022-08-28T17:16:39.187Z,25.02
2022-08-28T17:19:06.256Z,24.89
2022-08-28T17:21:52.003Z,24.76
2022-08-28T17:24:19.384Z,24.65
2022-08-28T17:26:47.252Z,24.52
2022-08-28T17:29:14.405Z,24.43
2022-08-28T17:31:41.774Z,24.34
2022-08-28T17:34:09.157Z,24.28
2022-08-28T17:36:38.322Z,24.24
2022-08-28T17:39:11.769Z,24.21
2022-08-28T17:41:41.097Z,24.17
2022-08-28T17:44:08.557Z,24.12
2022-08-28T17:46:38.038Z,24.09
2022-08-28T17:51:43.706Z,23.91
2022-08-28T17:54:14.004Z,23.78
2022-08-28T17:56:41.858Z,23.69
2022-08-28T17:59:12.566Z,23.56
2022-08-28T18:01:41.052Z,23.49
2022-08-28T18:04:09.068Z,23.41
2022-08-28T18:06:36.652Z,23.32
2022-08-28T18:09:06.003Z,23.28
2022-08-28T18:11:33.247Z,23.26
2022-08-28T18:14:00.822Z,23.13
2022-08-28T18:16:31.297Z,23.07
2022-08-28T18:19:00.344Z,22.98
2022-08-28T18:21:28.675Z,22.90
2022-08-28T18:23:56.046Z,22.80
2022-08-28T18:26:23.538Z,22.70
2022-08-28T18:28:51.229Z,22.64
2022-08-28T18:31:19.687Z,22.63
2022-08-28T18:33:46.774Z,22.55
2022-08-28T18:36:15.256Z,22.56
2022-08-28T18:38:43.587Z,22.48
2022-08-28T18:41:12.090Z,22.48
2022-08-28T18:43:39.503Z,22.50
2022-08-28T18:46:09.275Z,22.39
2022-08-28T18:48:37.953Z,22.34
2022-08-28T18:51:11.684Z,22.24
2022-08-28T18:53:39.335Z,22.22
2022-08-28T18:56:12.162Z,22.07
2022-08-28T18:58:41.763Z,21.99
2022-08-28T19:01:10.499Z,21.92
2022-08-28T19:03:37.893Z,21.85
2022-08-28T19:06:06.409Z,21.82
2022-08-28T19:08:35.346Z,21.76
2022-08-28T19:11:08.881Z,21.68
2022-08-28T19:13:36.704Z,21.63
2022-08-28T19:16:04.787Z,21.58
2022-08-28T19:18:31.919Z,21.53
2022-08-28T19:21:09.214Z,21.45
2022-08-28T19:23:37.184Z,21.45
2022-08-28T19:26:06.718Z,21.42
2022-08-28T19:28:35.479Z,21.34
2022-08-28T19:31:04.495Z,21.29
2022-08-28T19:33:32.289Z,21.23
2022-08-28T19:35:59.532Z,21.21
2022-08-28T19:38:26.568Z,21.14
2022-08-28T19:40:58.030Z,21.12
2022-08-28T19:43:25.371Z,21.09
2022-08-28T19:46:14.097Z,21.04
2022-08-28T19:48:48.190Z,20.98
2022-08-28T19:51:22.389Z,20.94
2022-08-28T19:53:58.348Z,20.91
2022-08-28T19:56:28.689Z,20.84
2022-08-28T19:58:59.106Z,20.82
2022-08-28T20:01:37.825Z,20.73
2022-08-28T20:04:07.941Z,20.67
2022-08-28T20:06:36.696Z,20.67
2022-08-28T20:09:08.315Z,20.64
2022-08-28T20:11:39.992Z,20.59
2022-08-28T20:14:07.233Z,20.54
2022-08-28T20:16:42.044Z,20.48
2022-08-28T20:19:11.450Z,20.44
2022-08-28T20:21:41.203Z,20.40
2022-08-28T20:24:13.768Z,20.38
2022-08-28T20:26:41.398Z,20.36
2022-08-28T20:29:10.015Z,20.37
2022-08-28T20:31:43.935Z,20.30
2022-08-28T20:34:12.600Z,20.27
2022-08-28T20:36:40.418Z,20.22
2022-08-28T20:39:09.404Z,20.22
2022-08-28T20:41:39.384Z,20.20
2022-08-28T20:44:08.043Z,20.20
2022-08-28T20:46:40.927Z,20.17
2022-08-28T20:49:12.054Z,20.10
2022-08-28T20:51:53.320Z,20.05
2022-08-28T20:54:28.684Z,20.01
2022-08-28T20:56:58.203Z,19.99
2022-08-28T20:59:28.907Z,19.92
2022-08-28T21:02:02.842Z,19.87
2022-08-28T21:04:30.471Z,19.81
2022-08-28T21:06:58.104Z,19.79
2022-08-28T21:09:43.963Z,19.77
2022-08-28T21:12:12.825Z,19.66
2022-08-28T21:14:40.329Z,19.66
2022-08-28T21:17:07.566Z,19.65
2022-08-28T21:19:40.151Z,19.64
2022-08-28T21:22:07.836Z,19.63
2022-08-28T21:24:35.627Z,19.61
2022-08-28T21:27:02.924Z,19.55
2022-08-28T21:29:30.423Z,19.53
2022-08-28T21:31:57.428Z,19.50
2022-08-28T21:34:24.761Z,19.50
2022-08-28T21:36:51.892Z,19.48
2022-08-28T21:39:23.479Z,19.47
2022-08-28T21:41:51.235Z,19.47
2022-08-28T21:44:18.667Z,19.42
2022-08-28T21:46:46.017Z,19.37
2022-08-28T21:49:13.203Z,19.33
2022-08-28T21:51:40.323Z,19.40
2022-08-28T21:54:07.637Z,19.37
2022-08-28T21:56:34.681Z,19.35
2022-08-28T21:59:02.140Z,19.30
2022-08-28T22:01:29.363Z,19.26
2022-08-28T22:03:57.109Z,19.24
2022-08-28T22:06:26.504Z,19.18
2022-08-28T22:08:55.143Z,19.20
2022-08-28T22:11:25.199Z,19.17
2022-08-28T22:13:54.656Z,19.14
2022-08-28T22:16:22.224Z,19.10
2022-08-28T22:18:49.912Z,19.01
2022-08-28T22:21:40.635Z,18.92
2022-08-28T22:24:10.427Z,18.89
2022-08-28T22:26:37.952Z,18.86
2022-08-28T22:29:05.883Z,18.80
2022-08-28T22:31:33.047Z,18.78
2022-08-28T22:34:00.078Z,18.75
2022-08-28T22:36:29.120Z,18.65
2022-08-28T22:38:56.873Z,18.62
2022-08-28T22:41:24.435Z,18.58
2022-08-28T22:43:53.585Z,18.57
2022-08-28T22:46:21.104Z,18.53
2022-08-28T22:48:48.815Z,18.56
2022-08-28T22:51:18.691Z,18.56
2022-08-28T22:53:47.371Z,18.55
2022-08-28T22:56:17.128Z,18.55
2022-08-28T22:58:44.504Z,18.49
2022-08-28T23:01:17.560Z,18.44
2022-08-28T23:03:45.641Z,18.40
2022-08-28T23:06:12.707Z,18.39
2022-08-28T23:08:39.844Z,18.38
2022-08-28T23:11:07.001Z,18.40
2022-08-28T23:13:34.550Z,18.36
2022-08-28T23:16:02.165Z,18.32
2022-08-28T23:18:41.593Z,18.27
2022-08-28T23:21:19.576Z,18.21
2022-08-28T23:23:47.046Z,18.23
2022-08-28T23:26:15.421Z,18.21
2022-08-28T23:28:43.160Z,18.17
2022-08-28T23:31:10.740Z,18.16
2022-08-28T23:33:37.793Z,18.11
2022-08-28T23:36:05.501Z,18.07
2022-08-28T23:38:34.828Z,18.05
2022-08-28T23:41:02.175Z,18.05
2022-08-28T23:43:30.005Z,18.03
2022-08-28T23:45:57.088Z,17.99
2022-08-28T23:48:25.012Z,18.03
2022-08-28T23:50:53.001Z,18.03
2022-08-28T23:53:20.432Z,17.98
2022-08-28T23:55:49.915Z,17.96
2022-08-28T23:58:20.773Z,17.95
